createdAt,value
2022-10-31T00:01:32.939Z,62.85
2022-10-31T00:04:01.946Z,62.87
2022-10-31T00:06:30.635Z,62.90
2022-10-31T00:09:01.278Z,63.18
2022-10-31T00:11:31.188Z,63.20
2022-10-31T00:14:00.431Z,62.97
2022-10-31T00:16:30.235Z,63.14
2022-10-31T00:19:00.649Z,63.31
2022-10-31T00:21:29.887Z,63.29
2022-10-31T00:23:59.675Z,63.49
2022-10-31T00:26:29.491Z,63.42
2022-10-31T00:28:59.426Z,63.55
2022-10-31T00:31:29.354Z,63.91
2022-10-31T00:33:57.981Z,63.78
2022-10-31T00:36:27.074Z,63.72
2022-10-31T00:38:55.644Z,64.52
2022-10-31T00:41:23.863Z,64.04
2022-10-31T00:43:52.107Z,64.36
2022-10-31T00:46:22.174Z,64.42
2022-10-31T00:48:51.712Z,64.16
2022-10-31T00:51:19.971Z,63.88
2022-10-31T00:53:48.658Z,64.16
2022-10-31T00:56:16.867Z,64.49
2022-10-31T00:58:45.242Z,64.38
2022-10-31T01:01:14.084Z,64.47
2022-10-31T01:03:43.845Z,65.29
2022-10-31T01:06:14.180Z,64.83
2022-10-31T01:08:42.894Z,65.39
2022-10-31T01:11:16.479Z,65.38
2022-10-31T01:13:46.099Z,64.68
2022-10-31T01:16:16.288Z,64.32
2022-10-31T01:18:46.568Z,64.25
2022-10-31T01:21:17.516Z,63.99
2022-10-31T01:23:46.533Z,63.58
2022-10-31T01:26:16.797Z,63.42
2022-10-31T01:28:49.890Z,63.21
2022-10-31T01:31:20.033Z,63.54
2022-10-31T01:33:50.333Z,63.95
2022-10-31T01:36:22.111Z,64.93
2022-10-31T01:38:52.857Z,64.50
2022-10-31T01:41:24.434Z,64.33
2022-10-31T01:43:54.620Z,64.18
2022-10-31T01:46:27.010Z,63.90
2022-10-31T01:48:58.990Z,63.80
2022-10-31T01:51:32.276Z,63.88
2022-10-31T01:54:05.994Z,64.12
2022-10-31T01:56:40.272Z,64.04
2022-10-31T01:59:13.368Z,63.98
2022-10-31T02:01:43.068Z,63.84
2022-10-31T02:04:13.193Z,63.67
2022-10-31T02:06:47.538Z,63.53
2022-10-31T02:09:17.049Z,63.47
2022-10-31T02:11:46.955Z,63.39
2022-10-31T02:14:15.672Z,63.27
2022-10-31T02:16:44.142Z,63.35
2022-10-31T02:19:20.646Z,63.35
2022-10-31T02:21:57.400Z,63.61
2022-10-31T02:24:47.162Z,63.60
2022-10-31T02:27:29.891Z,63.86
2022-10-31T02:30:11.837Z,63.41
2022-10-31T02:33:02.642Z,64.47
2022-10-31T02:35:46.205Z,65.17
2022-10-31T02:38:31.711Z,65.98
2022-10-31T02:41:08.310Z,65.29
2022-10-31T02:43:41.404Z,64.60
2022-10-31T02:46:16.707Z,64.65
2022-10-31T02:48:48.323Z,64.33
2022-10-31T02:51:18.551Z,64.38
2022-10-31T02:53:47.133Z,64.03
2022-10-31T02:56:17.473Z,63.82
2022-10-31T02:58:51.559Z,63.66
2022-10-31T03:01:41.969Z,63.72
2022-10-31T03:04:25.921Z,63.97
2022-10-31T03:07:00.451Z,63.89
2022-10-31T03:09:35.904Z,63.85
2022-10-31T03:12:12.585Z,65.61
2022-10-31T03:14:45.081Z,65.05
2022-10-31T03:17:23.010Z,65.06
2022-10-31T03:19:56.631Z,65.66
2022-10-31T03:22:31.665Z,65.09
2022-10-31T03:25:03.725Z,65.38
2022-10-31T03:27:36.117Z,65.75
2022-10-31T03:30:08.775Z,66.21
2022-10-31T03:32:42.902Z,65.57
2022-10-31T03:35:17.563Z,66.69
2022-10-31T03:37:47.505Z,66.10
2022-10-31T03:40:18.076Z,65.40
2022-10-31T03:42:54.169Z,65.23
2022-10-31T03:45:27.528Z,65.11
2022-10-31T03:47:57.575Z,65.09
2022-10-31T03:50:32.887Z,65.81
2022-10-31T03:53:10.052Z,65.83
2022-10-31T03:55:44.120Z,65.95
2022-10-31T04:00:51.113Z,66.46
2022-10-31T04:03:24.407Z,66.46
2022-10-31T04:05:59.154Z,66.37
2022-10-31T04:08:32.328Z,66.30
2022-10-31T04:11:03.685Z,66.30
2022-10-31T04:13:36.473Z,65.99
2022-10-31T04:16:06.082Z,65.67
2022-10-31T04:18:34.883Z,65.58
2022-10-31T04:21:08.494Z,65.82
2022-10-31T04:23:38.008Z,66.78
2022-10-31T04:26:06.852Z,66.66
2022-10-31T04:28:35.087Z,67.19
2022-10-31T04:31:03.727Z,67.51
2022-10-31T04:33:32.207Z,67.79
2022-10-31T04:36:00.709Z,67.72
2022-10-31T04:38:30.627Z,67.51
2022-10-31T04:40:59.026Z,67.73
2022-10-31T04:43:30.672Z,67.82
2022-10-31T04:46:01.305Z,68.57
2022-10-31T04:48:30.327Z,68.18
2022-10-31T04:51:02.387Z,68.13
2022-10-31T04:53:32.322Z,68.08
2022-10-31T04:56:01.957Z,67.30
2022-10-31T04:58:34.053Z,66.97
2022-10-31T05:01:02.517Z,66.60
2022-10-31T05:03:30.872Z,66.40
2022-10-31T05:05:59.466Z,66.66
2022-10-31T05:08:27.635Z,66.62
2022-10-31T05:11:03.177Z,66.50
2022-10-31T05:13:33.499Z,66.50
2022-10-31T05:16:04.217Z,66.44
2022-10-31T05:18:35.159Z,66.27
2022-10-31T05:21:06.103Z,66.50
2022-10-31T05:23:35.928Z,66.42
2022-10-31T05:26:05.842Z,66.27
2022-10-31T05:28:34.747Z,66.12
2022-10-31T05:31:03.312Z,65.91
2022-10-31T05:33:32.674Z,65.73
2022-10-31T05:36:21.411Z,65.66
2022-10-31T05:38:50.181Z,65.46
2022-10-31T05:41:20.141Z,65.88
2022-10-31T05:43:48.941Z,66.04
2022-10-31T05:46:17.435Z,66.03
2022-10-31T05:48:47.914Z,65.77
2022-10-31T05:51:19.555Z,65.92
2022-10-31T05:53:49.300Z,66.20
2022-10-31T05:56:17.986Z,66.78
2022-10-31T05:58:47.487Z,67.52
2022-10-31T06:01:16.025Z,67.81
2022-10-31T06:03:45.947Z,68.26
2022-10-31T06:06:16.917Z,67.78
2022-10-31T06:08:45.821Z,67.41
2022-10-31T06:11:14.543Z,67.88
2022-10-31T06:13:47.611Z,68.58
2022-10-31T06:16:16.194Z,68.00
2022-10-31T06:18:44.484Z,68.09
2022-10-31T06:21:16.435Z,68.33
2022-10-31T06:23:47.340Z,68.47
2022-10-31T06:26:16.570Z,68.62
2022-10-31T06:28:44.975Z,68.27
2022-10-31T06:31:15.436Z,67.84
2022-10-31T06:33:44.454Z,67.54
2022-10-31T06:36:12.909Z,67.03
2022-10-31T06:38:41.970Z,67.43
2022-10-31T06:41:10.801Z,67.56
2022-10-31T06:43:39.382Z,67.68
2022-10-31T06:46:08.751Z,67.57
2022-10-31T06:48:38.780Z,67.25
2022-10-31T06:51:07.728Z,67.25
2022-10-31T06:53:35.967Z,67.11
2022-10-31T06:56:04.912Z,67.25
2022-10-31T06:58:36.009Z,66.97
2022-10-31T07:01:05.301Z,66.56
2022-10-31T07:03:34.512Z,66.46
2022-10-31T07:06:04.551Z,66.53
2022-10-31T07:08:34.256Z,66.22
2022-10-31T07:11:02.651Z,66.60
2022-10-31T07:13:31.044Z,67.50
2022-10-31T07:16:03.106Z,67.52
2022-10-31T07:18:33.143Z,66.89
2022-10-31T07:21:02.066Z,66.53
2022-10-31T07:23:31.940Z,66.39
2022-10-31T07:26:01.664Z,66.39
2022-10-31T07:28:32.209Z,66.56
2022-10-31T07:31:00.954Z,66.13
2022-10-31T07:33:29.252Z,65.99
2022-10-31T07:35:59.597Z,65.77
2022-10-31T07:38:31.403Z,65.78
2022-10-31T07:41:01.347Z,65.87
2022-10-31T07:43:30.194Z,65.83
2022-10-31T07:45:58.665Z,65.90
2022-10-31T07:48:29.485Z,65.78
2022-10-31T07:51:08.407Z,66.38
2022-10-31T07:53:42.134Z,66.72
2022-10-31T07:56:11.015Z,67.14
2022-10-31T07:58:39.572Z,66.88
2022-10-31T08:01:08.101Z,67.61
2022-10-31T08:03:39.272Z,67.54
2022-10-31T08:06:09.287Z,67.75
2022-10-31T08:08:39.969Z,67.95
2022-10-31T08:11:10.294Z,67.42
2022-10-31T08:13:39.396Z,66.95
2022-10-31T08:16:08.622Z,67.19
2022-10-31T08:18:38.607Z,66.73
2022-10-31T08:21:11.418Z,66.55
2022-10-31T08:23:39.911Z,66.33
2022-10-31T08:26:10.772Z,66.18
2022-10-31T08:28:39.342Z,66.16
2022-10-31T08:31:07.827Z,65.91
2022-10-31T08:33:42.401Z,65.63
2022-10-31T08:36:14.854Z,65.43
2022-10-31T08:38:44.313Z,65.19
2022-10-31T08:41:13.980Z,65.25
2022-10-31T08:43:42.319Z,65.37
2022-10-31T08:46:10.862Z,65.23
2022-10-31T08:48:44.552Z,65.31
2022-10-31T08:51:14.131Z,65.61
2022-10-31T08:53:44.174Z,65.63
2022-10-31T08:56:16.439Z,65.70
2022-10-31T08:58:44.715Z,65.35
2022-10-31T09:01:13.574Z,64.91
2022-10-31T09:03:43.831Z,64.63
2022-10-31T09:06:12.514Z,64.30
2022-10-31T09:08:40.888Z,64.21
2022-10-31T09:11:09.207Z,64.17
2022-10-31T09:13:43.096Z,64.48
2022-10-31T09:16:14.228Z,64.58
2022-10-31T09:18:42.815Z,64.91
2022-10-31T09:21:11.005Z,65.03
2022-10-31T09:23:39.445Z,64.94
2022-10-31T09:26:08.048Z,64.89
2022-10-31T09:28:36.629Z,64.52
2022-10-31T09:31:06.637Z,64.38
2022-10-31T09:33:38.165Z,64.01
2022-10-31T09:36:08.321Z,63.61
2022-10-31T09:38:38.634Z,63.34
2022-10-31T09:41:19.366Z,62.87
2022-10-31T09:43:58.706Z,62.85
2022-10-31T09:46:36.959Z,63.00
2022-10-31T09:49:27.811Z,62.86
2022-10-31T09:52:02.872Z,62.24
2022-10-31T09:54:36.840Z,62.81
2022-10-31T09:57:06.915Z,62.94
2022-10-31T09:59:39.313Z,63.13
2022-10-31T10:02:19.092Z,62.87
2022-10-31T10:04:54.111Z,62.79
2022-10-31T10:07:31.761Z,62.90
2022-10-31T10:10:03.699Z,62.72
2022-10-31T10:12:48.442Z,62.87
2022-10-31T10:15:39.480Z,62.42
2022-10-31T10:18:20.226Z,62.52
2022-10-31T10:21:03.260Z,62.23
2022-10-31T10:23:43.549Z,62.18
2022-10-31T10:26:19.960Z,62.06
2022-10-31T10:28:51.666Z,61.67
2022-10-31T10:31:25.357Z,61.97
2022-10-31T10:34:03.665Z,61.98
2022-10-31T10:36:39.892Z,61.34
2022-10-31T10:39:16.386Z,61.66
2022-10-31T10:42:02.992Z,62.22
2022-10-31T10:44:48.600Z,62.20
2022-10-31T10:47:34.507Z,62.36
2022-10-31T10:50:09.347Z,62.62
2022-10-31T10:52:50.307Z,62.29
2022-10-31T10:55:29.169Z,62.21
2022-10-31T10:58:00.948Z,62.03
2022-10-31T11:00:33.550Z,62.55
2022-10-31T11:03:02.560Z,62.43
2022-10-31T11:05:38.358Z,62.62
2022-10-31T11:08:07.879Z,62.48
2022-10-31T11:10:36.869Z,62.46
2022-10-31T11:13:19.652Z,62.01
2022-10-31T11:15:59.429Z,61.80
2022-10-31T11:18:30.073Z,61.91
2022-10-31T11:21:02.255Z,62.26
2022-10-31T11:23:33.206Z,62.18
2022-10-31T11:26:03.369Z,62.43
2022-10-31T11:28:35.769Z,62.13
2022-10-31T11:31:11.001Z,62.23
2022-10-31T11:33:47.291Z,62.10
2022-10-31T11:36:23.544Z,62.24
2022-10-31T11:38:53.750Z,62.37
2022-10-31T11:41:28.279Z,62.42
2022-10-31T11:43:59.324Z,61.90
2022-10-31T11:46:35.868Z,61.92
2022-10-31T11:49:07.172Z,61.64
2022-10-31T11:51:37.454Z,61.67
2022-10-31T11:54:07.253Z,61.78
2022-10-31T11:56:41.762Z,61.70
2022-10-31T11:59:20.712Z,61.62
2022-10-31T12:01:51.625Z,61.13
2022-10-31T12:04:21.266Z,61.56
2022-10-31T12:06:57.051Z,61.80
2022-10-31T12:09:28.999Z,61.62
2022-10-31T12:12:26.294Z,61.88
2022-10-31T12:15:07.227Z,61.52
2022-10-31T12:17:42.154Z,61.37
2022-10-31T12:20:23.415Z,61.43
2022-10-31T12:23:03.646Z,61.22
2022-10-31T12:25:41.512Z,61.15
2022-10-31T12:28:44.928Z,61.53
2022-10-31T12:31:31.093Z,60.51
2022-10-31T12:34:14.780Z,60.74
2022-10-31T12:36:52.178Z,61.06
2022-10-31T12:39:30.380Z,60.74
2022-10-31T12:42:07.355Z,60.72
2022-10-31T12:45:08.636Z,60.96
2022-10-31T12:48:01.438Z,59.71
2022-10-31T12:50:42.813Z,60.33
2022-10-31T12:53:28.083Z,60.57
2022-10-31T12:56:13.365Z,60.40
2022-10-31T12:58:49.328Z,60.85
2022-10-31T13:01:24.599Z,61.03
2022-10-31T13:03:59.412Z,61.20
2022-10-31T13:06:36.970Z,60.95
2022-10-31T13:09:10.113Z,60.89
2022-10-31T13:11:44.857Z,61.12
2022-10-31T13:14:22.094Z,61.11
2022-10-31T13:16:51.323Z,61.04
2022-10-31T13:19:26.314Z,61.01
2022-10-31T13:22:02.585Z,61.21
2022-10-31T13:24:36.095Z,60.82
2022-10-31T13:27:15.947Z,61.04
2022-10-31T13:29:55.002Z,60.73
2022-10-31T13:32:23.426Z,60.94
2022-10-31T13:34:56.155Z,60.94
2022-10-31T13:37:33.086Z,60.85
2022-10-31T13:40:16.069Z,60.71
2022-10-31T13:42:57.241Z,60.79
2022-10-31T13:45:27.713Z,60.51
2022-10-31T13:48:02.146Z,60.97
2022-10-31T13:50:33.317Z,60.58
2022-10-31T13:53:16.405Z,60.76
2022-10-31T13:55:47.764Z,60.11
2022-10-31T13:58:27.403Z,60.57
2022-10-31T14:01:18.815Z,60.28
2022-10-31T14:04:07.627Z,60.35
2022-10-31T14:06:44.771Z,60.79
2022-10-31T14:09:26.120Z,60.83
2022-10-31T14:11:56.996Z,60.66
2022-10-31T14:14:37.451Z,60.87
2022-10-31T14:17:06.378Z,60.74
2022-10-31T14:19:35.313Z,60.89
2022-10-31T14:22:04.313Z,60.97
2022-10-31T14:24:38.955Z,60.99
2022-10-31T14:27:36.890Z,61.27
2022-10-31T14:30:23.494Z,61.38
2022-10-31T14:32:55.362Z,61.55
2022-10-31T14:35:31.319Z,61.57
2022-10-31T14:38:13.831Z,61.79
2022-10-31T14:40:51.755Z,62.97
2022-10-31T14:44:18.035Z,63.29
2022-10-31T14:46:55.750Z,63.66
2022-10-31T14:49:39.409Z,64.05
2022-10-31T14:52:10.158Z,63.73
2022-10-31T14:54:42.816Z,63.80
2022-10-31T14:57:21.285Z,64.29
2022-10-31T14:59:53.069Z,64.47
2022-10-31T15:02:26.562Z,64.16
2022-10-31T15:04:57.637Z,64.47
2022-10-31T15:07:28.199Z,65.04
2022-10-31T15:10:02.261Z,64.90
2022-10-31T15:12:32.804Z,65.38
2022-10-31T15:15:13.682Z,65.10
2022-10-31T15:17:50.081Z,65.74
2022-10-31T15:20:24.340Z,65.79
2022-10-31T15:22:53.035Z,66.01
2022-10-31T15:25:24.483Z,65.60
2022-10-31T15:27:54.053Z,65.84
2022-10-31T15:30:25.124Z,66.41
2022-10-31T15:32:58.604Z,66.11
2022-10-31T15:35:29.312Z,66.07
2022-10-31T15:37:59.769Z,66.05
2022-10-31T15:40:29.645Z,66.30
2022-10-31T15:43:00.669Z,66.46
2022-10-31T15:45:33.311Z,67.01
2022-10-31T15:48:06.328Z,66.92
2022-10-31T15:50:42.363Z,67.17
2022-10-31T15:53:19.388Z,68.05
2022-10-31T15:55:52.805Z,68.25
2022-10-31T15:58:21.894Z,67.94
2022-10-31T16:01:01.276Z,67.83
2022-10-31T16:03:32.675Z,69.34
2022-10-31T16:06:07.700Z,68.24
2022-10-31T16:08:47.659Z,67.94
2022-10-31T16:11:24.665Z,68.13
2022-10-31T16:14:00.769Z,68.36
2022-10-31T16:16:35.961Z,68.96
2022-10-31T16:19:16.539Z,68.20
2022-10-31T16:21:45.282Z,68.58
2022-10-31T16:24:19.868Z,68.36
2022-10-31T16:26:53.035Z,68.52
2022-10-31T16:29:30.249Z,68.28
2022-10-31T16:31:58.486Z,69.00
2022-10-31T16:34:28.381Z,68.61
2022-10-31T16:36:57.303Z,68.62
2022-10-31T16:39:25.761Z,68.41
2022-10-31T16:41:58.160Z,68.59
2022-10-31T16:44:27.901Z,68.74
2022-10-31T16:47:15.386Z,69.14
2022-10-31T16:49:46.024Z,70.39
2022-10-31T16:52:14.887Z,69.00
2022-10-31T16:54:43.045Z,68.83
2022-10-31T16:57:16.910Z,68.60
2022-10-31T16:59:48.290Z,68.77
2022-10-31T17:02:18.703Z,68.79
2022-10-31T17:04:50.894Z,69.13
2022-10-31T17:07:22.186Z,69.26
2022-10-31T17:09:50.664Z,69.66
2022-10-31T17:12:22.639Z,69.11
2022-10-31T17:14:52.778Z,68.92
2022-10-31T17:17:21.067Z,68.62
2022-10-31T17:19:50.770Z,68.51
2022-10-31T17:22:19.361Z,68.41
2022-10-31T17:24:48.059Z,68.22
2022-10-31T17:27:16.371Z,67.97
2022-10-31T17:29:45.008Z,68.11
2022-10-31T17:32:13.283Z,67.67
2022-10-31T17:34:41.570Z,67.83
2022-10-31T17:37:12.614Z,68.06
2022-10-31T17:39:40.914Z,67.88
2022-10-31T17:42:09.479Z,67.80
2022-10-31T17:44:37.675Z,67.72
2022-10-31T17:47:06.287Z,67.43
2022-10-31T17:49:34.974Z,67.21
2022-10-31T17:52:03.468Z,67.22
2022-10-31T17:54:33.064Z,67.19
2022-10-31T17:57:01.564Z,66.96
2022-10-31T17:59:30.247Z,66.96
2022-10-31T18:01:59.603Z,67.19
2022-10-31T18:04:28.578Z,67.57
2022-10-31T18:06:56.803Z,67.69
2022-10-31T18:09:24.982Z,67.45
2022-10-31T18:11:55.424Z,67.34
2022-10-31T18:14:24.576Z,67.19
2022-10-31T18:16:52.892Z,67.16
2022-10-31T18:19:21.497Z,67.03
2022-10-31T18:21:49.790Z,67.06
2022-10-31T18:24:18.058Z,67.11
2022-10-31T18:26:46.661Z,67.48
2022-10-31T18:29:16.374Z,67.43
2022-10-31T18:31:48.450Z,67.55
2022-10-31T18:34:17.433Z,67.72
2022-10-31T18:36:45.818Z,67.57
2022-10-31T18:39:14.126Z,67.54
2022-10-31T18:41:43.420Z,67.29
2022-10-31T18:44:12.182Z,67.16
2022-10-31T18:46:41.944Z,67.20
2022-10-31T18:49:10.583Z,67.37
2022-10-31T18:51:38.826Z,67.38
2022-10-31T18:54:07.177Z,67.37
2022-10-31T18:56:35.852Z,67.45
2022-10-31T18:59:04.348Z,67.23
2022-10-31T19:01:33.306Z,67.30
2022-10-31T19:04:03.979Z,67.29
2022-10-31T19:06:32.564Z,67.45
2022-10-31T19:09:03.303Z,67.70
2022-10-31T19:11:33.449Z,67.78
2022-10-31T19:14:01.956Z,68.05
2022-10-31T19:16:30.690Z,68.14
2022-10-31T19:19:01.577Z,68.20
2022-10-31T19:21:32.415Z,68.53
2022-10-31T19:24:01.687Z,68.95
2022-10-31T19:26:29.955Z,68.81
2022-10-31T19:28:58.459Z,68.72
2022-10-31T19:31:27.248Z,69.25
2022-10-31T19:33:55.790Z,69.19
2022-10-31T19:36:25.163Z,69.22
2022-10-31T19:38:56.842Z,69.11
2022-10-31T19:41:28.186Z,68.89
2022-10-31T19:44:01.159Z,69.05
2022-10-31T19:49:26.575Z,69.73
2022-10-31T19:51:55.858Z,70.01
2022-10-31T19:54:33.099Z,69.96
2022-10-31T19:57:01.936Z,70.09
2022-10-31T19:59:32.948Z,69.42
2022-10-31T20:02:05.819Z,68.94
2022-10-31T20:04:34.987Z,68.82
2022-10-31T20:07:03.870Z,68.74
2022-10-31T20:09:33.989Z,68.49
2022-10-31T20:12:03.087Z,68.28
2022-10-31T20:14:31.804Z,68.10
2022-10-31T20:17:00.480Z,67.91
2022-10-31T20:19:29.483Z,67.91
2022-10-31T20:21:57.969Z,67.93
2022-10-31T20:24:26.714Z,68.09
2022-10-31T20:26:57.203Z,68.42
2022-10-31T20:29:25.793Z,68.90
2022-10-31T20:31:54.250Z,68.83
2022-10-31T20:34:23.087Z,68.35
2022-10-31T20:36:51.532Z,68.00
2022-10-31T20:39:21.145Z,67.83
2022-10-31T20:41:51.505Z,67.71
2022-10-31T20:44:22.331Z,67.67
2022-10-31T20:46:53.079Z,67.76
2022-10-31T20:49:22.576Z,67.73
2022-10-31T20:51:51.878Z,67.73
2022-10-31T20:54:20.365Z,67.76
2022-10-31T20:56:49.370Z,68.13
2022-10-31T20:59:20.122Z,68.13
2022-10-31T21:01:50.092Z,68.55
2022-10-31T21:04:19.158Z,68.89
2022-10-31T21:06:49.602Z,68.82
2022-10-31T21:09:18.945Z,68.73
2022-10-31T21:11:48.349Z,69.40
2022-10-31T21:14:16.630Z,69.33
2022-10-31T21:16:45.012Z,69.30
2022-10-31T21:19:15.425Z,69.25
2022-10-31T21:21:44.240Z,70.16
2022-10-31T21:24:15.357Z,70.45
2022-10-31T21:26:49.106Z,70.39
2022-10-31T21:29:18.309Z,70.60
2022-10-31T21:31:47.422Z,70.46
2022-10-31T21:34:17.447Z,70.14
2022-10-31T21:36:46.535Z,70.15
2022-10-31T21:39:15.451Z,70.17
2022-10-31T21:41:44.585Z,70.04
2022-10-31T21:44:13.244Z,69.98
2022-10-31T21:46:42.073Z,69.90
2022-10-31T21:49:11.812Z,69.62
2022-10-31T21:51:43.026Z,69.61
2022-10-31T21:54:28.652Z,70.02
2022-10-31T21:56:57.246Z,71.02
2022-10-31T21:59:26.757Z,70.89
2022-10-31T22:01:57.021Z,71.08
2022-10-31T22:04:25.972Z,70.47
2022-10-31T22:06:56.221Z,69.80
2022-10-31T22:09:24.703Z,69.53
2022-10-31T22:11:53.479Z,69.31
2022-10-31T22:14:22.271Z,69.30
2022-10-31T22:16:50.763Z,69.34
2022-10-31T22:19:19.537Z,69.76
2022-10-31T22:21:49.601Z,70.14
2022-10-31T22:24:19.594Z,70.46
2022-10-31T22:26:48.681Z,70.18
2022-10-31T22:29:18.798Z,69.85
2022-10-31T22:31:50.775Z,69.71
2022-10-31T22:34:22.249Z,69.29
2022-10-31T22:36:50.686Z,68.80
2022-10-31T22:39:20.944Z,68.52
2022-10-31T22:41:49.641Z,68.43
2022-10-31T22:44:17.925Z,68.29
2022-10-31T22:46:46.250Z,68.63
2022-10-31T22:49:16.556Z,68.34
2022-10-31T22:51:45.548Z,68.30
2022-10-31T22:54:16.314Z,68.18
2022-10-31T22:56:46.537Z,68.87
2022-10-31T22:59:17.263Z,70.18
2022-10-31T23:01:46.520Z,69.75
2022-10-31T23:04:16.282Z,69.56
2022-10-31T23:06:45.066Z,69.39
2022-10-31T23:09:16.499Z,69.19
2022-10-31T23:11:46.420Z,68.96
2022-10-31T23:14:18.607Z,69.04
2022-10-31T23:16:48.484Z,69.27
2022-10-31T23:19:19.039Z,69.18
2022-10-31T23:21:59.946Z,68.85
2022-10-31T23:24:33.212Z,69.01
2022-10-31T23:27:09.318Z,69.54
2022-10-31T23:29:41.139Z,70.13
2022-10-31T23:32:11.968Z,69.96
2022-10-31T23:34:40.745Z,69.71
2022-10-31T23:37:09.369Z,68.87
2022-10-31T23:39:37.833Z,68.22
2022-10-31T23:42:07.811Z,68.23
2022-10-31T23:44:36.389Z,68.17
2022-10-31T23:47:05.524Z,68.19
2022-10-31T23:49:34.284Z,68.01
2022-10-31T23:52:03.556Z,68.10
2022-10-31T23:54:32.560Z,67.96
2022-10-31T23:57:01.749Z,67.81
2022-10-31T23:59:31.958Z,67.84
